Terminal Aerodrome Forecast
Issued by NWS

Home | Current Version | Previous Version | Text Only | Print | Product List | Glossary On
Versions: 1 2 3 4 5 6 7 8 9 10 11 12 13 14 15 16 17 18 19 20 21 22 23
000
FTUS43 KSGF 181700
TAFJLN
TAF
KJLN 181728Z 1818/1918 15006KT 6SM -SHRA SCT020 OVC060
      TEMPO 1818/1820 BKN014 OVC060
     FM182100 19007KT P6SM VCSH SCT030 OVC070
     FM190000 14005KT P6SM SCT040 BKN100
     FM190900 16005KT 4SM BR BKN015
     FM191400 24006KT P6SM SCT035 BKN100=

USA.gov is the U.S. government's official web portal to all federal, state and local government web resources and services.